Weather at Aviosuperficie Avioclub Paternò

Public forecast

Using degrees Celsius for public forecast. Weather courtesy of forecast.io.

Closest aviation weather report (METAR) to Aviosuperficie Avioclub Paternò

Closest report is Sigonella Navy Air Base, 9.3 nm (17.2 km) S. Retrieved 2020/10/28 04:55 UTC (48 minutes ago):

LICZ 280455Z 26011KT 9999 FEW020 14/14 Q1012 RMK FEW VIS MIN 9999 WIND THR28 26011KT WIND THR10 25011KT A2990 BLU

Closest aviation forecast (TAF) to Aviosuperficie Avioclub Paternò

Closest forecast is Sigonella Navy Air Base, 9.3 nm (17.2 km) S. Retrieved 2020-10-28 00:33 UTC (5 hours ago):

TAF LICZ 272300Z 2800/2824 25015KT 9999 SCT020 SCT070 BECMG 2808/2810 33015KT FEW020 SCT050 TEMPO 2810/2816 33015G25KT